LIBN/LCC METAR and TAF weather

Enter ICAO airport designator
Station Type Date Time Source
LIBN METAR 2023/01/30 09:55 UTC NOAA

LIBN 300955Z 33007KT 9999 -RA SCT025 SCT030 08/06 Q1018


Station Type Date Time Source
LIBN Decoded METAR 2023/01/30 09:55 UTC NOAA

Lecce, Italy (LIBN) 40-14N 018-09E 61M
Jan 30, 2023 - 04:55 AM EST / 2023.01.30 0955 UTC
Wind: from the NNW (330 degrees) at 8 MPH (7 KT):0
Visibility: greater than 7 mile(s):0
Sky conditions: partly cloudy
Weather: light rain
Temperature: 46 F (8 C)
Dew Point: 42 F (6 C)
Relative Humidity: 87%
Pressure (altimeter): 30.06 in. Hg (1018 hPa)
ob: LIBN 300955Z 33007KT 9999 -RA SCT025 SCT030 08/06 Q1018
cycle: 10

Station Type Date Time Source
LIBN TAF 2022/09/13 09:27 UTC NOAA

TAF TAF LIBN 130800Z 1309/1321 35013KT 9999 FEW030
TEMPO 1309/1311 SCT030

Example: see airport list